createdAt,value
2023-05-16T00:00:30.082Z,4.32
2023-05-16T00:05:35.415Z,3.08
2023-05-16T00:10:39.048Z,4.30
2023-05-16T00:15:42.861Z,2.80
2023-05-16T00:20:48.179Z,2.10
2023-05-16T00:25:51.820Z,5.30
2023-05-16T00:30:55.453Z,1.88
2023-05-16T00:36:00.730Z,2.30
2023-05-16T00:41:04.526Z,2.97
2023-05-16T00:46:08.199Z,3.42
2023-05-16T00:51:13.492Z,2.50
2023-05-16T00:56:18.440Z,2.47
2023-05-16T01:11:39.767Z,3.85
2023-05-16T01:16:51.596Z,4.22
2023-05-16T01:22:03.753Z,1.98
2023-05-16T01:27:11.482Z,2.10
2023-05-16T01:32:15.076Z,2.72
2023-05-16T01:37:25.180Z,2.20
2023-05-16T01:42:34.044Z,2.55
2023-05-16T01:47:43.491Z,2.33
2023-05-16T01:52:56.426Z,2.22
2023-05-16T01:58:05.122Z,1.85
2023-05-16T02:03:08.876Z,3.78
2023-05-16T02:08:13.014Z,2.60
2023-05-16T02:13:18.270Z,5.57
2023-05-16T02:18:21.875Z,3.35
2023-05-16T02:23:25.503Z,6.13
2023-05-16T02:28:30.771Z,3.65
2023-05-16T02:33:35.150Z,3.25
2023-05-16T02:38:38.749Z,3.50
2023-05-16T02:43:46.186Z,4.43
2023-05-16T02:48:50.796Z,2.92
2023-05-16T02:53:55.198Z,4.78
2023-05-16T02:59:01.076Z,3.77
2023-05-16T03:04:04.948Z,4.95
2023-05-16T03:09:08.664Z,2.95
2023-05-16T03:14:14.635Z,3.63
2023-05-16T03:19:18.457Z,3.40
2023-05-16T03:24:22.192Z,3.33
2023-05-16T03:29:27.529Z,3.08
2023-05-16T03:39:34.045Z,4.80
2023-05-16T03:44:39.303Z,5.28
2023-05-16T03:49:42.918Z,3.75
2023-05-16T03:54:46.514Z,4.18
2023-05-16T03:59:51.781Z,3.72
2023-05-16T04:04:55.403Z,4.03
2023-05-16T04:09:59.214Z,5.53
2023-05-16T04:15:04.895Z,6.10
2023-05-16T04:20:09.112Z,4.07
2023-05-16T04:25:12.753Z,2.40
2023-05-16T04:30:18.437Z,5.30
2023-05-16T04:35:22.060Z,4.80
2023-05-16T04:40:26.197Z,4.82
2023-05-16T04:45:31.411Z,3.95
2023-05-16T04:50:35.055Z,2.58
2023-05-16T04:55:38.690Z,2.85
2023-05-16T05:00:44.710Z,2.85
2023-05-16T05:05:48.329Z,2.85
2023-05-16T05:10:51.923Z,4.45
2023-05-16T05:15:58.180Z,3.90
2023-05-16T05:21:01.818Z,4.07
2023-05-16T05:26:05.836Z,5.80
2023-05-16T05:31:11.146Z,2.20
2023-05-16T05:36:14.805Z,3.63
2023-05-16T05:41:18.515Z,3.00
2023-05-16T05:46:25.559Z,5.03
2023-05-16T05:51:29.329Z,3.20
2023-05-16T05:56:32.939Z,2.63
2023-05-16T06:01:38.888Z,2.72
2023-05-16T06:06:42.557Z,2.92
2023-05-16T06:11:46.158Z,3.70
2023-05-16T06:16:51.504Z,4.25
2023-05-16T06:21:55.133Z,2.22
2023-05-16T06:26:58.691Z,3.13
2023-05-16T06:32:03.958Z,4.95
2023-05-16T06:37:07.650Z,4.75
2023-05-16T06:42:11.306Z,2.50
2023-05-16T06:47:16.853Z,2.90
2023-05-16T06:52:20.621Z,2.97
2023-05-16T06:57:24.259Z,2.85
2023-05-16T07:02:29.674Z,2.55
2023-05-16T07:07:33.439Z,2.78
2023-05-16T07:12:37.751Z,1.48
2023-05-16T07:17:43.085Z,2.15
2023-05-16T07:22:46.774Z,2.03
2023-05-16T07:27:50.414Z,2.08
2023-05-16T07:32:56.718Z,4.05
2023-05-16T07:38:00.325Z,3.58
2023-05-16T07:43:03.960Z,3.67
2023-05-16T07:48:09.315Z,3.35
2023-05-16T07:53:13.923Z,3.85
2023-05-16T07:58:17.891Z,2.72
2023-05-16T08:03:26.086Z,3.63
2023-05-16T08:08:29.901Z,3.67
2023-05-16T08:13:33.615Z,3.17
2023-05-16T08:18:39.018Z,2.60
2023-05-16T08:23:42.686Z,2.30
2023-05-16T08:28:46.340Z,2.47
2023-05-16T08:33:52.618Z,1.75
2023-05-16T08:38:56.642Z,2.22
2023-05-16T08:44:00.711Z,3.88
2023-05-16T08:49:06.998Z,3.00
2023-05-16T08:54:13.972Z,3.78
2023-05-16T08:59:19.336Z,3.22
2023-05-16T09:04:26.867Z,2.15
2023-05-16T09:09:30.625Z,2.35
2023-05-16T09:14:34.294Z,4.60
2023-05-16T09:19:44.610Z,3.17
2023-05-16T09:24:48.392Z,2.88
2023-05-16T09:29:52.749Z,2.53
2023-05-16T09:34:59.077Z,3.55
2023-05-16T09:40:04.025Z,1.65
2023-05-16T09:45:12.540Z,2.35
2023-05-16T09:50:19.469Z,3.15
2023-05-16T09:55:24.642Z,1.98
2023-05-16T10:00:31.668Z,2.90
2023-05-16T10:05:38.005Z,2.00
2023-05-16T10:10:42.156Z,2.42
2023-05-16T10:15:47.856Z,1.42
2023-05-16T10:20:56.081Z,2.67
2023-05-16T10:26:01.841Z,3.63
2023-05-16T10:31:06.652Z,2.95
2023-05-16T10:36:12.846Z,2.47
2023-05-16T10:41:17.415Z,2.70
2023-05-16T10:46:23.546Z,1.73
2023-05-16T10:51:39.112Z,2.63
2023-05-16T10:56:43.097Z,4.37
2023-05-16T11:01:52.946Z,2.38
2023-05-16T11:06:59.695Z,2.72
2023-05-16T11:12:04.080Z,6.93
2023-05-16T11:17:12.847Z,2.17
2023-05-16T11:22:29.276Z,2.05
2023-05-16T11:32:38.122Z,2.88
2023-05-16T11:37:44.855Z,2.43
2023-05-16T11:42:49.272Z,3.08
2023-05-16T11:47:53.109Z,2.22
2023-05-16T11:52:58.834Z,3.72
2023-05-16T11:58:03.028Z,3.67
2023-05-16T12:03:06.888Z,4.03
2023-05-16T12:08:12.224Z,2.55
2023-05-16T12:13:16.772Z,2.90
2023-05-16T12:18:20.754Z,3.22
2023-05-16T12:23:28.470Z,3.22
2023-05-16T12:28:33.849Z,3.90
2023-05-16T12:33:39.057Z,4.83
2023-05-16T12:38:47.908Z,2.77
2023-05-16T12:43:51.772Z,3.42
2023-05-16T12:49:03.879Z,3.63
2023-05-16T12:54:16.713Z,3.45
2023-05-16T12:59:20.511Z,4.32
2023-05-16T13:04:24.626Z,3.53
2023-05-16T13:09:32.658Z,2.60
2023-05-16T13:14:36.814Z,2.80
2023-05-16T13:19:40.504Z,3.97
2023-05-16T13:24:45.917Z,2.70
2023-05-16T13:29:49.548Z,2.43
2023-05-16T13:34:53.471Z,4.18
2023-05-16T13:39:58.881Z,4.82
2023-05-16T13:45:02.574Z,4.03
2023-05-16T13:50:07.346Z,5.10
2023-05-16T13:55:12.919Z,5.70
2023-05-16T14:00:44.519Z,8.80
2023-05-16T14:05:40.855Z,9.75
2023-05-16T14:10:46.184Z,8.82
2023-05-16T14:15:49.891Z,9.20
2023-05-16T14:20:53.589Z,9.38
2023-05-16T14:25:58.891Z,9.82
2023-05-16T14:31:02.728Z,9.80
2023-05-16T14:36:08.475Z,9.07
2023-05-16T14:46:17.008Z,8.68
2023-05-16T14:51:20.762Z,10.55
2023-05-16T14:56:26.133Z,9.43
2023-05-16T15:01:29.817Z,7.73
2023-05-16T15:06:33.504Z,9.98
2023-05-16T15:11:38.877Z,8.25
2023-05-16T15:16:43.077Z,7.33
2023-05-16T15:21:46.867Z,8.70
2023-05-16T15:26:52.190Z,6.55
2023-05-16T15:31:55.935Z,6.67
2023-05-16T15:36:59.765Z,6.22
2023-05-16T15:42:12.087Z,7.35
2023-05-16T15:47:18.856Z,5.18
2023-05-16T15:52:23.049Z,6.20
2023-05-16T15:57:28.447Z,6.07
2023-05-16T16:02:32.280Z,12.23
2023-05-16T16:07:36.041Z,7.53
2023-05-16T16:12:41.560Z,8.68
2023-05-16T16:17:45.223Z,5.40
2023-05-16T16:22:48.902Z,7.28
2023-05-16T16:27:54.693Z,5.90
2023-05-16T16:32:58.549Z,8.77
2023-05-16T16:38:06.062Z,8.07
2023-05-16T16:43:13.525Z,5.88
2023-05-16T16:48:17.186Z,6.65
2023-05-16T16:53:20.874Z,13.00
2023-05-16T16:58:26.165Z,6.25
2023-05-16T17:08:32.890Z,4.93
2023-05-16T17:13:38.251Z,6.60
2023-05-16T17:18:41.958Z,5.53
2023-05-16T17:23:45.669Z,5.60
2023-05-16T17:28:51.092Z,11.02
2023-05-16T17:33:55.602Z,3.58
2023-05-16T17:38:59.411Z,4.73
2023-05-16T17:44:04.937Z,5.57
2023-05-16T17:49:08.653Z,6.95
2023-05-16T17:54:12.454Z,6.80
2023-05-16T17:59:18.253Z,6.28
2023-05-16T18:04:22.764Z,5.80
2023-05-16T18:09:26.469Z,5.57
2023-05-16T18:14:31.941Z,5.38
2023-05-16T18:19:36.858Z,7.53
2023-05-16T18:24:40.685Z,5.78
2023-05-16T18:29:46.642Z,6.97
2023-05-16T18:34:50.507Z,4.72
2023-05-16T18:39:54.416Z,6.45
2023-05-16T18:44:59.725Z,3.63
2023-05-16T18:50:03.388Z,6.68
2023-05-16T18:55:07.773Z,5.70
2023-05-16T19:00:14.255Z,4.25
2023-05-16T19:05:18.275Z,4.45
2023-05-16T19:10:22.242Z,5.00
2023-05-16T19:15:27.803Z,6.43
2023-05-16T19:20:32.021Z,5.80
2023-05-16T19:25:35.746Z,8.00
2023-05-16T19:30:41.354Z,5.13
2023-05-16T19:35:45.174Z,6.03
2023-05-16T19:40:48.798Z,7.13
2023-05-16T19:45:54.246Z,4.93
2023-05-16T19:50:57.925Z,4.97
2023-05-16T19:56:01.881Z,5.15
2023-05-16T20:01:07.223Z,5.77
2023-05-16T20:06:10.876Z,6.07
2023-05-16T20:11:14.630Z,4.55
2023-05-16T20:16:20.047Z,8.27
2023-05-16T20:21:23.711Z,6.50
2023-05-16T20:26:27.419Z,3.63
2023-05-16T20:31:32.733Z,6.67
2023-05-16T20:36:36.497Z,5.15
2023-05-16T20:41:40.188Z,4.77
2023-05-16T20:46:46.224Z,4.90
2023-05-16T20:51:49.906Z,5.50
2023-05-16T20:56:53.605Z,3.83
2023-05-16T21:01:58.984Z,5.53
2023-05-16T21:07:02.709Z,4.82
2023-05-16T21:12:07.031Z,6.67
2023-05-16T21:17:12.407Z,3.90
2023-05-16T21:22:16.072Z,5.95
2023-05-16T21:27:19.767Z,4.47
2023-05-16T21:32:25.154Z,3.90
2023-05-16T21:37:28.855Z,5.68
2023-05-16T21:42:32.466Z,3.30
2023-05-16T21:47:37.798Z,4.53
2023-05-16T21:52:41.654Z,4.82
2023-05-16T21:57:45.287Z,3.53
2023-05-16T22:02:50.722Z,4.70
2023-05-16T22:07:54.426Z,4.75
2023-05-16T22:12:58.065Z,3.93
2023-05-16T22:18:03.511Z,5.97
2023-05-16T22:23:07.174Z,5.00
2023-05-16T22:28:10.825Z,6.07
2023-05-16T22:33:16.199Z,4.00
2023-05-16T22:38:20.006Z,6.32
2023-05-16T22:43:23.652Z,7.40
2023-05-16T22:48:29.065Z,6.53
2023-05-16T22:53:32.784Z,7.20
2023-05-16T22:58:36.529Z,7.30
2023-05-16T23:03:42.334Z,8.30
2023-05-16T23:08:46.606Z,6.45
2023-05-16T23:13:50.230Z,5.05
2023-05-16T23:18:56.316Z,3.93
2023-05-16T23:23:59.981Z,4.97
2023-05-16T23:29:03.695Z,5.17
2023-05-16T23:34:09.117Z,6.33
2023-05-16T23:39:13.005Z,5.85
2023-05-16T23:44:16.663Z,6.53
2023-05-16T23:49:22.002Z,7.60
2023-05-16T23:54:25.706Z,7.18
2023-05-16T23:59:29.362Z,5.43
